createdAt,value
2023-04-10T00:01:21.492Z,33.60
2023-04-10T00:03:49.456Z,35.20
2023-04-10T00:06:17.445Z,35.80
2023-04-10T00:08:45.345Z,36.30
2023-04-10T00:11:13.684Z,35.70
2023-04-10T00:13:41.833Z,35.20
2023-04-10T00:16:09.910Z,33.80
2023-04-10T00:18:37.716Z,35.30
2023-04-10T00:21:06.319Z,32.40
2023-04-10T00:23:35.009Z,33.50
2023-04-10T00:26:03.417Z,34.80
2023-04-10T00:28:31.810Z,35.00
2023-04-10T00:30:59.822Z,34.60
2023-04-10T00:33:27.497Z,32.80
2023-04-10T00:35:55.590Z,36.70
2023-04-10T00:38:23.458Z,34.40
2023-04-10T00:40:51.651Z,35.90
2023-04-10T00:43:20.412Z,34.80
2023-04-10T00:45:49.974Z,33.80
2023-04-10T00:48:18.872Z,34.50
2023-04-10T00:50:47.554Z,36.10
2023-04-10T00:53:16.879Z,33.40
2023-04-10T00:55:46.094Z,34.10
2023-04-10T00:58:14.789Z,35.90
2023-04-10T01:00:45.937Z,34.90
2023-04-10T01:03:17.423Z,34.60
2023-04-10T01:05:57.344Z,35.90
2023-04-10T01:08:47.661Z,36.10
2023-04-10T01:11:30.945Z,36.40
2023-04-10T01:14:07.439Z,38.20
2023-04-10T01:16:46.620Z,36.00
2023-04-10T01:19:52.741Z,36.00
2023-04-10T01:22:25.428Z,35.80
2023-04-10T01:25:12.821Z,37.70
2023-04-10T01:27:54.446Z,36.30
2023-04-10T01:30:23.761Z,36.80
2023-04-10T01:32:56.036Z,36.60
2023-04-10T01:35:26.166Z,36.40
2023-04-10T01:37:55.091Z,37.30
2023-04-10T01:40:25.950Z,38.00
2023-04-10T01:42:57.207Z,39.50
2023-04-10T01:45:28.731Z,42.90
2023-04-10T01:47:56.864Z,42.90
2023-04-10T01:50:28.033Z,42.10
2023-04-10T01:52:57.940Z,38.90
2023-04-10T01:55:27.660Z,40.50
2023-04-10T01:57:56.565Z,39.00
2023-04-10T02:00:24.347Z,40.50
2023-04-10T02:02:52.301Z,40.60
2023-04-10T02:05:22.184Z,42.40
2023-04-10T02:08:02.270Z,43.20
2023-04-10T02:10:36.575Z,45.40
2023-04-10T02:13:11.658Z,42.80
2023-04-10T02:15:43.826Z,39.80
2023-04-10T02:18:15.992Z,38.90
2023-04-10T02:20:44.881Z,39.60
2023-04-10T02:23:14.508Z,41.40
2023-04-10T02:25:45.331Z,40.60
2023-04-10T02:28:13.124Z,40.80
2023-04-10T02:30:41.284Z,42.30
2023-04-10T02:33:09.055Z,41.00
2023-04-10T02:35:37.849Z,42.00
2023-04-10T02:38:06.024Z,40.90
2023-04-10T02:40:33.871Z,41.00
2023-04-10T02:43:02.330Z,38.40
2023-04-10T02:45:30.501Z,40.00
2023-04-10T02:47:58.314Z,38.70
2023-04-10T02:50:29.733Z,39.30
2023-04-10T02:52:57.480Z,38.80
2023-04-10T02:55:25.320Z,40.50
2023-04-10T02:57:53.742Z,42.30
2023-04-10T03:00:23.143Z,42.50
2023-04-10T03:02:51.568Z,40.50
2023-04-10T03:05:20.055Z,40.90
2023-04-10T03:07:47.766Z,41.80
2023-04-10T03:10:15.945Z,41.60
2023-04-10T03:12:43.699Z,42.90
2023-04-10T03:15:12.782Z,42.90
2023-04-10T03:17:41.166Z,43.90
2023-04-10T03:20:09.831Z,42.70
2023-04-10T03:22:37.570Z,42.00
2023-04-10T03:25:06.660Z,44.10
2023-04-10T03:27:35.110Z,44.60
2023-04-10T03:30:03.258Z,43.20
2023-04-10T03:32:31.363Z,43.50
2023-04-10T03:34:59.440Z,46.30
2023-04-10T03:37:27.875Z,44.50
2023-04-10T03:39:55.985Z,44.10
2023-04-10T03:42:24.676Z,45.40
2023-04-10T03:44:52.484Z,45.60
2023-04-10T03:47:20.316Z,44.30
2023-04-10T03:49:48.100Z,47.30
2023-04-10T03:52:16.088Z,45.80
2023-04-10T03:54:43.859Z,45.10
2023-04-10T03:57:12.138Z,48.20
2023-04-10T03:59:39.965Z,46.90
2023-04-10T04:02:08.298Z,46.60
2023-04-10T04:04:36.214Z,46.50
2023-04-10T04:07:04.051Z,47.50
2023-04-10T04:09:32.035Z,50.00
2023-04-10T04:11:59.852Z,55.00
2023-04-10T04:14:27.612Z,47.90
2023-04-10T04:16:55.609Z,47.30
2023-04-10T04:19:23.405Z,47.50
2023-04-10T04:21:51.349Z,46.10
2023-04-10T04:24:19.076Z,46.80
2023-04-10T04:26:47.590Z,47.80
2023-04-10T04:29:15.626Z,47.20
2023-04-10T04:31:43.600Z,44.80
2023-04-10T04:34:11.522Z,50.40
2023-04-10T04:36:39.780Z,47.80
2023-04-10T04:39:07.953Z,48.00
2023-04-10T04:41:36.115Z,44.60
2023-04-10T04:44:05.190Z,47.70
2023-04-10T04:46:33.140Z,45.30
2023-04-10T04:49:00.924Z,48.10
2023-04-10T04:51:31.683Z,48.40
2023-04-10T04:53:59.905Z,45.70
2023-04-10T04:56:28.080Z,46.30
2023-04-10T04:58:56.126Z,43.10
2023-04-10T05:01:24.063Z,47.50
2023-04-10T05:03:51.903Z,48.80
2023-04-10T05:06:20.481Z,48.10
2023-04-10T05:08:49.238Z,48.20
2023-04-10T05:11:17.773Z,55.60
2023-04-10T05:13:46.129Z,49.40
2023-04-10T05:16:14.027Z,49.50
2023-04-10T05:18:41.983Z,50.30
2023-04-10T05:21:09.779Z,53.20
2023-04-10T05:23:38.350Z,47.80
2023-04-10T05:26:06.962Z,47.50
2023-04-10T05:28:34.839Z,47.90
2023-04-10T05:31:02.726Z,54.20
2023-04-10T05:33:30.629Z,49.50
2023-04-10T05:35:58.640Z,46.30
2023-04-10T05:38:26.920Z,47.40
2023-04-10T05:40:55.646Z,49.40
2023-04-10T05:43:23.554Z,57.30
2023-04-10T05:45:51.294Z,47.80
2023-04-10T05:48:19.072Z,43.40
2023-04-10T05:50:46.930Z,46.60
2023-04-10T05:53:15.544Z,48.00
2023-04-10T05:55:43.896Z,44.00
2023-04-10T05:58:11.702Z,46.10
2023-04-10T06:00:39.399Z,43.90
2023-04-10T06:03:07.222Z,41.30
2023-04-10T06:05:35.500Z,42.70
2023-04-10T06:08:03.977Z,49.90
2023-04-10T06:10:32.873Z,41.00
2023-04-10T06:13:00.965Z,40.10
2023-04-10T06:15:29.520Z,39.10
2023-04-10T06:17:57.349Z,47.50
2023-04-10T06:20:25.476Z,53.20
2023-04-10T06:22:54.458Z,41.50
2023-04-10T06:25:22.999Z,38.60
2023-04-10T06:27:51.458Z,38.50
2023-04-10T06:30:19.244Z,36.60
2023-04-10T06:32:47.040Z,37.80
2023-04-10T06:35:14.794Z,39.60
2023-04-10T06:37:43.704Z,38.20
2023-04-10T06:40:14.158Z,41.90
2023-04-10T06:42:42.428Z,34.30
2023-04-10T06:45:10.561Z,34.20
2023-04-10T06:47:38.524Z,32.10
2023-04-10T06:50:06.687Z,32.80
2023-04-10T06:52:34.498Z,34.40
2023-04-10T06:55:03.298Z,33.80
2023-04-10T06:57:31.190Z,32.00
2023-04-10T06:59:59.170Z,33.90
2023-04-10T07:02:27.182Z,32.30
2023-04-10T07:04:57.036Z,35.20
2023-04-10T07:07:25.765Z,30.40
2023-04-10T07:09:54.159Z,29.50
2023-04-10T07:12:23.043Z,27.90
2023-04-10T07:14:51.056Z,29.70
2023-04-10T07:17:18.850Z,28.00
2023-04-10T07:19:46.792Z,28.80
2023-04-10T07:22:15.895Z,26.50
2023-04-10T07:24:44.452Z,26.60
2023-04-10T07:27:13.090Z,23.50
2023-04-10T07:29:41.261Z,25.70
2023-04-10T07:32:12.590Z,25.00
2023-04-10T07:34:42.242Z,26.00
2023-04-10T07:37:10.558Z,25.00
2023-04-10T07:39:39.009Z,27.90
2023-04-10T07:42:06.895Z,23.80
2023-04-10T07:44:34.651Z,19.90
2023-04-10T07:47:03.718Z,18.40
2023-04-10T07:49:31.722Z,17.40
2023-04-10T07:51:59.964Z,16.70
2023-04-10T07:54:31.470Z,17.80
2023-04-10T07:57:02.701Z,17.60
2023-04-10T07:59:30.550Z,14.00
2023-04-10T08:01:58.448Z,15.80
2023-04-10T08:04:26.843Z,14.90
2023-04-10T08:06:55.289Z,13.80
2023-04-10T08:09:23.655Z,15.00
2023-04-10T08:11:51.399Z,12.70
2023-04-10T08:14:19.409Z,13.20
2023-04-10T08:16:47.218Z,11.20
2023-04-10T08:19:15.150Z,13.00
2023-04-10T08:21:43.529Z,12.60
2023-04-10T08:24:11.857Z,12.90
2023-04-10T08:26:39.686Z,11.60
2023-04-10T08:29:14.724Z,11.30
2023-04-10T08:31:42.901Z,10.90
2023-04-10T08:34:11.173Z,11.20
2023-04-10T08:36:39.427Z,10.30
2023-04-10T08:39:07.477Z,10.70
2023-04-10T08:41:41.532Z,9.60
2023-04-10T08:44:09.692Z,10.30
2023-04-10T08:46:43.913Z,8.80
2023-04-10T08:49:18.913Z,8.90
2023-04-10T08:51:54.391Z,8.60
2023-04-10T08:54:28.333Z,8.60
2023-04-10T08:56:58.598Z,8.90
2023-04-10T08:59:30.288Z,8.10
2023-04-10T09:02:03.399Z,8.90
2023-04-10T09:04:32.022Z,9.10
2023-04-10T09:07:00.753Z,8.50
2023-04-10T09:09:32.491Z,8.40
2023-04-10T09:12:01.919Z,8.40
2023-04-10T09:14:35.364Z,8.50
2023-04-10T09:19:41.740Z,8.70
2023-04-10T09:22:09.971Z,7.80
2023-04-10T09:24:43.861Z,8.60
2023-04-10T09:27:27.597Z,8.80
2023-04-10T09:32:42.885Z,7.40
2023-04-10T09:35:13.619Z,8.00
2023-04-10T09:37:45.206Z,8.40
2023-04-10T09:40:24.789Z,6.80
2023-04-10T09:42:56.139Z,7.10
2023-04-10T09:45:24.602Z,7.30
2023-04-10T09:48:02.450Z,7.50
2023-04-10T09:50:41.246Z,7.60
2023-04-10T09:53:12.085Z,6.60
2023-04-10T09:55:42.422Z,7.50
2023-04-10T09:58:14.637Z,8.30
2023-04-10T10:00:48.201Z,8.50
2023-04-10T10:03:23.448Z,7.70
2023-04-10T10:05:53.420Z,8.30
2023-04-10T10:08:22.205Z,7.40
2023-04-10T10:10:53.974Z,7.90
2023-04-10T10:13:29.489Z,8.10
2023-04-10T10:16:03.120Z,7.30
2023-04-10T10:18:47.247Z,6.60
2023-04-10T10:21:17.048Z,7.00
2023-04-10T10:23:46.291Z,7.50
2023-04-10T10:26:14.771Z,7.10
2023-04-10T10:28:43.960Z,6.30
2023-04-10T10:31:12.657Z,6.50
2023-04-10T10:33:41.505Z,6.70
2023-04-10T10:36:11.875Z,6.90
2023-04-10T10:38:45.336Z,6.00
2023-04-10T10:43:52.889Z,5.30
2023-04-10T10:46:29.596Z,5.90
2023-04-10T10:49:00.363Z,5.50
2023-04-10T10:51:52.337Z,5.50
2023-04-10T10:54:34.769Z,5.50
2023-04-10T10:57:05.519Z,5.50
2023-04-10T10:59:59.853Z,5.60
2023-04-10T11:02:28.225Z,5.10
2023-04-10T11:04:56.241Z,6.10
2023-04-10T11:07:59.210Z,5.50
2023-04-10T11:11:05.769Z,4.90
2023-04-10T11:14:01.473Z,4.80
2023-04-10T11:16:41.069Z,6.00
2023-04-10T11:19:16.214Z,6.30
2023-04-10T11:22:09.211Z,6.30
2023-04-10T11:25:02.007Z,5.60
2023-04-10T11:27:52.889Z,5.80
2023-04-10T11:30:32.511Z,6.10
2023-04-10T11:33:01.911Z,6.50
2023-04-10T11:35:31.929Z,6.90
2023-04-10T11:38:12.580Z,6.10
2023-04-10T11:40:57.276Z,6.50
2023-04-10T11:43:25.108Z,8.30
2023-04-10T11:46:08.828Z,15.40
2023-04-10T11:48:37.834Z,16.70
2023-04-10T11:51:10.495Z,12.10
2023-04-10T11:53:39.422Z,9.50
2023-04-10T11:56:16.532Z,12.70
2023-04-10T11:58:45.438Z,8.30
2023-04-10T12:01:14.786Z,7.40
2023-04-10T12:03:44.363Z,6.90
2023-04-10T12:06:14.565Z,6.80
2023-04-10T12:08:46.202Z,12.30
2023-04-10T12:11:18.282Z,5.70
2023-04-10T12:13:46.585Z,4.30
2023-04-10T12:16:14.976Z,4.70
2023-04-10T12:18:43.330Z,4.60
2023-04-10T12:21:11.905Z,5.20
2023-04-10T12:23:40.691Z,4.50
2023-04-10T12:26:16.359Z,4.50
2023-04-10T12:29:06.344Z,5.40
2023-04-10T12:31:37.023Z,4.30
2023-04-10T12:34:07.080Z,4.40
2023-04-10T12:36:37.598Z,4.60
2023-04-10T12:39:21.772Z,4.80
2023-04-10T12:41:49.740Z,5.00
2023-04-10T12:44:19.350Z,5.50
2023-04-10T12:46:47.669Z,5.40
2023-04-10T12:49:17.303Z,5.20
2023-04-10T12:51:52.487Z,5.10
2023-04-10T12:54:32.225Z,5.10
2023-04-10T12:57:02.061Z,4.60
2023-04-10T12:59:31.550Z,4.50
2023-04-10T13:01:59.657Z,4.70
2023-04-10T13:04:31.742Z,4.80
2023-04-10T13:06:59.569Z,5.00
2023-04-10T13:09:27.773Z,5.30
2023-04-10T13:11:57.688Z,4.90
2023-04-10T13:14:26.230Z,5.40
2023-04-10T13:16:57.095Z,5.30
2023-04-10T13:19:24.866Z,5.40
2023-04-10T13:21:53.238Z,5.30
2023-04-10T13:24:22.109Z,5.20
2023-04-10T13:26:50.517Z,5.10
2023-04-10T13:29:18.293Z,5.00
2023-04-10T13:31:46.389Z,4.50
2023-04-10T13:34:14.678Z,4.10
2023-04-10T13:36:43.101Z,4.40
2023-04-10T13:39:11.411Z,4.50
2023-04-10T13:41:39.146Z,4.40
2023-04-10T13:44:06.857Z,4.40
2023-04-10T13:46:35.269Z,5.30
2023-04-10T13:49:03.174Z,4.00
2023-04-10T13:51:31.024Z,4.80
2023-04-10T13:53:59.597Z,4.20
2023-04-10T13:56:29.961Z,4.30
2023-04-10T13:58:57.707Z,4.40
2023-04-10T14:01:26.484Z,4.40
2023-04-10T14:03:54.630Z,4.50
2023-04-10T14:06:22.488Z,5.10
2023-04-10T14:08:50.730Z,5.30
2023-04-10T14:11:18.447Z,3.30
2023-04-10T14:13:46.258Z,3.00
2023-04-10T14:16:14.990Z,3.50
2023-04-10T14:18:42.729Z,4.30
2023-04-10T14:21:10.753Z,4.30
2023-04-10T14:23:39.005Z,4.20
2023-04-10T14:26:06.821Z,4.80
2023-04-10T14:28:35.108Z,4.20
2023-04-10T14:31:04.803Z,5.00
2023-04-10T14:33:32.545Z,5.00
2023-04-10T14:36:00.333Z,5.00
2023-04-10T14:38:28.773Z,4.90
2023-04-10T14:40:56.467Z,5.50
2023-04-10T14:43:24.177Z,5.90
2023-04-10T14:45:52.377Z,6.20
2023-04-10T14:48:21.376Z,5.30
2023-04-10T14:50:49.703Z,5.20
2023-04-10T14:53:18.090Z,5.80
2023-04-10T14:55:46.074Z,5.50
2023-04-10T14:58:14.588Z,7.80
2023-04-10T15:00:43.801Z,5.40
2023-04-10T15:03:11.535Z,4.90
2023-04-10T15:05:39.392Z,5.40
2023-04-10T15:08:07.963Z,5.00
2023-04-10T15:10:36.266Z,4.50
2023-04-10T15:13:04.263Z,5.00
2023-04-10T15:15:32.046Z,7.10
2023-04-10T15:18:00.095Z,8.90
2023-04-10T15:20:27.910Z,8.90
2023-04-10T15:22:56.180Z,7.90
2023-04-10T15:25:24.463Z,5.70
2023-04-10T15:27:55.382Z,5.80
2023-04-10T15:30:23.285Z,5.60
2023-04-10T15:32:51.073Z,5.30
2023-04-10T15:35:19.237Z,6.20
2023-04-10T15:37:47.615Z,7.20
2023-04-10T15:40:16.126Z,7.40
2023-04-10T15:42:43.879Z,4.80
2023-04-10T15:45:12.057Z,4.60
2023-04-10T15:47:39.961Z,4.40
2023-04-10T15:50:10.204Z,4.80
2023-04-10T15:52:39.065Z,5.20
2023-04-10T15:55:07.799Z,4.80
2023-04-10T15:57:36.218Z,4.20
2023-04-10T16:00:05.406Z,4.50
2023-04-10T16:02:33.328Z,4.90
2023-04-10T16:05:02.019Z,5.20
2023-04-10T16:07:30.798Z,4.60
2023-04-10T16:09:58.597Z,4.60
2023-04-10T16:12:26.311Z,4.40
2023-04-10T16:14:54.271Z,5.40
2023-04-10T16:17:22.097Z,4.80
2023-04-10T16:19:50.516Z,8.10
2023-04-10T16:22:18.810Z,6.90
2023-04-10T16:24:46.592Z,24.00
2023-04-10T16:27:14.364Z,38.10
2023-04-10T16:29:42.145Z,30.30
2023-04-10T16:32:10.568Z,22.90
2023-04-10T16:34:38.719Z,21.70
2023-04-10T16:37:07.760Z,24.40
2023-04-10T16:39:35.663Z,29.90
2023-04-10T16:42:04.917Z,100.60
2023-04-10T16:44:32.901Z,108.90
2023-04-10T16:47:01.983Z,119.60
2023-04-10T16:49:29.963Z,102.60
2023-04-10T16:51:57.713Z,83.20
2023-04-10T16:54:25.635Z,68.80
2023-04-10T16:56:53.602Z,58.20
2023-04-10T16:59:21.933Z,31.80
2023-04-10T17:01:51.441Z,30.40
2023-04-10T17:04:20.219Z,30.20
2023-04-10T17:06:48.246Z,25.70
2023-04-10T17:09:16.130Z,24.70
2023-04-10T17:11:47.176Z,19.10
2023-04-10T17:14:16.171Z,17.20
2023-04-10T17:16:45.879Z,23.20
2023-04-10T17:19:18.509Z,22.00
2023-04-10T17:21:46.321Z,50.30
2023-04-10T17:24:14.189Z,120.00
2023-04-10T17:26:42.049Z,107.90
2023-04-10T17:29:10.351Z,106.30
2023-04-10T17:31:38.710Z,91.00
2023-04-10T17:34:06.754Z,95.80
2023-04-10T17:36:34.545Z,76.70
2023-04-10T17:39:02.342Z,77.10
2023-04-10T17:41:30.259Z,70.40
2023-04-10T17:43:58.769Z,69.70
2023-04-10T17:46:27.162Z,75.70
2023-04-10T17:48:59.982Z,79.20
2023-04-10T17:51:28.339Z,79.50
2023-04-10T17:53:56.093Z,88.60
2023-04-10T17:56:24.508Z,89.60
2023-04-10T17:58:54.469Z,70.30
2023-04-10T18:01:30.314Z,51.30
2023-04-10T18:03:59.302Z,42.80
2023-04-10T18:06:27.832Z,40.50
2023-04-10T18:08:57.389Z,39.10
2023-04-10T18:11:25.569Z,39.20
2023-04-10T18:13:53.408Z,38.90
2023-04-10T18:16:21.187Z,42.70
2023-04-10T18:18:49.352Z,45.00
2023-04-10T18:21:21.072Z,56.00
2023-04-10T18:23:48.827Z,31.80
2023-04-10T18:26:16.590Z,30.50
2023-04-10T18:28:46.380Z,37.50
2023-04-10T18:31:16.032Z,42.50
2023-04-10T18:33:43.849Z,42.30
2023-04-10T18:36:14.088Z,50.80
2023-04-10T18:38:43.897Z,42.50
2023-04-10T18:41:11.753Z,38.30
2023-04-10T18:43:40.066Z,38.80
2023-04-10T18:46:09.001Z,37.40
2023-04-10T18:48:43.151Z,35.80
2023-04-10T18:51:11.813Z,33.40
2023-04-10T18:53:41.019Z,30.90
2023-04-10T18:56:09.264Z,32.50
2023-04-10T18:58:37.139Z,34.10
2023-04-10T19:01:05.048Z,37.60
2023-04-10T19:03:33.267Z,39.30
2023-04-10T19:06:01.414Z,38.70
2023-04-10T19:08:30.229Z,35.50
2023-04-10T19:10:58.066Z,34.60
2023-04-10T19:13:25.898Z,34.40
2023-04-10T19:15:53.689Z,36.80
2023-04-10T19:18:21.488Z,35.30
2023-04-10T19:20:52.921Z,41.90
2023-04-10T19:23:22.106Z,46.70
2023-04-10T19:25:55.177Z,48.80
2023-04-10T19:28:29.526Z,48.50
2023-04-10T19:31:00.907Z,49.20
2023-04-10T19:33:32.327Z,53.90
2023-04-10T19:36:00.903Z,53.00
2023-04-10T19:38:29.573Z,55.90
2023-04-10T19:40:57.576Z,49.20
2023-04-10T19:43:25.626Z,50.90
2023-04-10T19:45:56.411Z,51.00
2023-04-10T19:48:24.631Z,49.00
2023-04-10T19:50:53.037Z,47.30
2023-04-10T19:53:21.034Z,45.10
2023-04-10T19:55:48.844Z,42.70
2023-04-10T19:58:30.532Z,43.40
2023-04-10T20:01:07.040Z,42.00
2023-04-10T20:03:37.007Z,41.80
2023-04-10T20:06:07.612Z,41.80
2023-04-10T20:08:35.956Z,41.10
2023-04-10T20:11:06.370Z,41.80
2023-04-10T20:13:35.018Z,42.40
2023-04-10T20:16:03.500Z,43.30
2023-04-10T20:18:32.340Z,52.10
2023-04-10T20:21:00.152Z,51.20
2023-04-10T20:23:27.942Z,60.50
2023-04-10T20:25:55.935Z,61.30
2023-04-10T20:28:23.762Z,59.00
2023-04-10T20:30:52.146Z,54.80
2023-04-10T20:33:20.391Z,58.40
2023-04-10T20:35:48.153Z,64.20
2023-04-10T20:38:18.309Z,62.90
2023-04-10T20:40:46.098Z,58.40
2023-04-10T20:43:14.275Z,53.90
2023-04-10T20:45:42.383Z,56.40
2023-04-10T20:48:11.249Z,51.00
2023-04-10T20:50:46.780Z,47.40
2023-04-10T20:53:14.616Z,49.90
2023-04-10T20:55:42.546Z,48.90
2023-04-10T20:58:10.381Z,49.80
2023-04-10T21:00:41.861Z,50.30
2023-04-10T21:03:09.904Z,50.40
2023-04-10T21:05:41.843Z,45.70
2023-04-10T21:08:11.467Z,46.10
2023-04-10T21:10:48.625Z,42.30
2023-04-10T21:13:16.630Z,39.50
2023-04-10T21:15:44.876Z,38.70
2023-04-10T21:18:12.661Z,38.60
2023-04-10T21:20:40.418Z,39.00
2023-04-10T21:23:08.188Z,39.70
2023-04-10T21:25:36.588Z,38.50
2023-04-10T21:28:04.777Z,39.00
2023-04-10T21:30:32.502Z,37.70
2023-04-10T21:33:00.347Z,34.90
2023-04-10T21:35:28.297Z,34.00
2023-04-10T21:38:01.383Z,34.50
2023-04-10T21:40:34.770Z,33.20
2023-04-10T21:43:23.325Z,31.50
2023-04-10T21:45:51.621Z,32.30
2023-04-10T21:48:22.498Z,29.40
2023-04-10T21:50:51.410Z,29.40
2023-04-10T21:53:19.580Z,28.60
2023-04-10T21:55:47.857Z,29.70
2023-04-10T21:58:16.427Z,27.40
2023-04-10T22:00:47.433Z,29.60
2023-04-10T22:03:16.354Z,27.60
2023-04-10T22:05:44.368Z,28.70
2023-04-10T22:08:12.170Z,27.40
2023-04-10T22:10:39.912Z,28.00
2023-04-10T22:13:16.975Z,27.20
2023-04-10T22:15:54.381Z,27.20
2023-04-10T22:18:22.421Z,27.20
2023-04-10T22:20:50.296Z,26.20
2023-04-10T22:23:18.184Z,26.60
2023-04-10T22:25:46.021Z,28.70
2023-04-10T22:28:13.930Z,28.90
2023-04-10T22:30:41.825Z,28.00
2023-04-10T22:33:10.538Z,26.70
2023-04-10T22:35:38.588Z,26.70
2023-04-10T22:38:07.833Z,26.20
2023-04-10T22:40:35.804Z,26.40
2023-04-10T22:43:03.499Z,24.90
2023-04-10T22:45:31.378Z,25.10
2023-04-10T22:47:59.469Z,27.10
2023-04-10T22:50:27.249Z,27.50
2023-04-10T22:52:55.463Z,30.80
2023-04-10T22:55:23.183Z,32.30
2023-04-10T22:57:51.283Z,32.20
2023-04-10T23:00:19.206Z,33.10
2023-04-10T23:02:47.252Z,34.00
2023-04-10T23:05:15.873Z,32.00
2023-04-10T23:07:43.634Z,30.70
2023-04-10T23:10:11.650Z,31.90
2023-04-10T23:12:39.397Z,28.30
2023-04-10T23:15:08.644Z,27.40
2023-04-10T23:17:36.548Z,26.50
2023-04-10T23:20:04.671Z,24.70
2023-04-10T23:22:32.451Z,24.30
2023-04-10T23:25:00.334Z,24.80
2023-04-10T23:27:28.084Z,26.00
2023-04-10T23:29:55.784Z,28.10
2023-04-10T23:32:23.888Z,28.80
2023-04-10T23:34:51.629Z,25.60
2023-04-10T23:37:19.386Z,24.30
2023-04-10T23:39:50.635Z,22.10
2023-04-10T23:42:18.379Z,23.20
2023-04-10T23:44:46.106Z,23.30
2023-04-10T23:47:13.876Z,27.70
2023-04-10T23:49:41.623Z,25.30
2023-04-10T23:52:10.334Z,26.00
2023-04-10T23:54:38.208Z,24.30
2023-04-10T23:57:06.102Z,25.20
2023-04-10T23:59:33.844Z,26.20
